Time;durP1;ratioP1;P1;durP2;ratioP2;P2;SDS_P1;SDS_P2;PMS_P1;PMS_P2;Temp;Humidity;BMP_temperature;BMP_pressure;BME280_temperature;BME280_humidity;BME280_pressure;Samples;Min_cycle;Max_cycle;Signal;HPM_P1;HPM_P2
2023/12/18 00:00:00;;;;;;;47.53;21.20;;;2.80;99.30;;;;;;5031348;28;21349;-69
2023/12/18 00:02:27;;;;;;;38.77;20.30;;;2.80;99.20;;;;;;5048077;28;20582;-70
2023/12/18 00:04:55;;;;;;;41.67;21.50;;;2.80;99.30;;;;;;5011363;28;20537;-69
2023/12/18 00:07:22;;;;;;;36.57;20.60;;;2.80;99.10;;;;;;5021653;28;20476;-70
2023/12/18 00:09:49;;;;;;;54.17;21.70;;;2.80;98.80;;;;;;5043022;28;20888;-70
2023/12/18 00:12:16;;;;;;;37.50;22.40;;;2.70;98.70;;;;;;5020770;28;20572;-69
2023/12/18 00:14:45;;;;;;;43.20;21.37;;;2.70;98.70;;;;;;5050085;28;20478;-69
2023/12/18 00:17:12;;;;;;;42.87;24.40;;;2.70;98.50;;;;;;5060708;28;20536;-69
2023/12/18 00:19:39;;;;;;;40.00;21.40;;;2.50;98.30;;;;;;5051580;28;20479;-69
2023/12/18 00:22:08;;;;;;;43.10;20.33;;;2.50;98.70;;;;;;5043677;28;20540;-69
2023/12/18 00:24:34;;;;;;;38.40;21.40;;;2.50;98.70;;;;;;5061287;28;20896;-70
2023/12/18 00:27:01;;;;;;;42.33;22.90;;;2.50;98.70;;;;;;5048069;28;20487;-69
2023/12/18 00:29:28;;;;;;;39.77;22.30;;;2.40;98.60;;;;;;5035214;28;20486;-69
2023/12/18 00:31:55;;;;;;;41.00;22.57;;;2.30;98.80;;;;;;5039855;28;20542;-70
2023/12/18 00:34:22;;;;;;;54.50;23.53;;;2.20;99.20;;;;;;5024909;28;20512;-69
2023/12/18 00:36:49;;;;;;;38.87;20.43;;;2.20;99.30;;;;;;5037465;28;20486;-70
2023/12/18 00:39:17;;;;;;;32.83;19.53;;;2.30;99.20;;;;;;5023883;28;20479;-70
2023/12/18 00:41:44;;;;;;;39.43;19.57;;;2.30;99.00;;;;;;5016585;28;20740;-70
2023/12/18 00:44:12;;;;;;;48.17;22.43;;;2.20;98.90;;;;;;5045981;28;20557;-70
2023/12/18 00:46:39;;;;;;;38.03;20.77;;;2.10;99.10;;;;;;5050583;28;20910;-69
2023/12/18 00:49:06;;;;;;;42.20;21.50;;;2.10;99.40;;;;;;5061270;28;20902;-69
2023/12/18 00:51:33;;;;;;;38.27;19.90;;;2.20;99.20;;;;;;5040264;28;20531;-70
2023/12/18 00:54:06;;;;;;;31.87;18.20;;;2.10;99.10;;;;;;5051290;28;20494;-70
2023/12/18 00:56:36;;;;;;;29.00;16.93;;;2.30;99.00;;;;;;5060021;28;20513;-70
2023/12/18 00:59:03;;;;;;;43.53;19.13;;;2.30;98.90;;;;;;5063340;28;20483;-70
2023/12/18 01:01:30;;;;;;;40.67;18.20;;;;;;;;;;5060063;28;20904;-70
2023/12/18 01:03:57;;;;;;;32.37;19.60;;;2.30;98.80;;;;;;5052465;28;21002;-70
2023/12/18 01:06:24;;;;;;;42.93;19.67;;;2.30;98.80;;;;;;5067626;28;20509;-70
2023/12/18 01:08:50;;;;;;;39.47;18.57;;;2.30;98.80;;;;;;5077611;28;20486;-69
2023/12/18 01:11:17;;;;;;;30.20;19.27;;;2.40;98.80;;;;;;5060315;28;20477;-70
2023/12/18 01:13:46;;;;;;;40.63;19.03;;;;;;;;;;5062415;28;20725;-72
2023/12/18 01:16:13;;;;;;;33.10;18.40;;;2.40;99.10;;;;;;5055280;28;20521;-72
2023/12/18 01:18:40;;;;;;;42.67;19.20;;;2.40;98.90;;;;;;5061759;28;20475;-72
2023/12/18 01:21:07;;;;;;;34.40;18.53;;;2.40;98.80;;;;;;5051662;28;21093;-69
2023/12/18 01:23:33;;;;;;;42.23;19.27;;;2.40;98.80;;;;;;5061809;28;20568;-70
2023/12/18 01:26:00;;;;;;;29.80;17.50;;;2.40;98.80;;;;;;5049881;28;20489;-70
2023/12/18 01:28:27;;;;;;;35.37;20.70;;;2.40;99.00;;;;;;5065485;28;20883;-70
2023/12/18 01:30:55;;;;;;;37.53;20.60;;;2.50;99.10;;;;;;5040032;28;20482;-69
2023/12/18 01:33:22;;;;;;;42.57;19.70;;;2.50;99.10;;;;;;5029611;28;20933;-70
2023/12/18 01:35:49;;;;;;;49.97;20.80;;;2.50;99.50;;;;;;5032972;28;20634;-70
2023/12/18 01:38:16;;;;;;;64.13;22.50;;;2.50;99.40;;;;;;5058860;28;20576;-70
2023/12/18 01:40:46;;;;;;;60.43;22.53;;;2.50;99.30;;;;;;5024977;28;20818;-70
2023/12/18 01:43:23;;;;;;;59.60;23.33;;;2.50;99.20;;;;;;5061123;28;20532;-70
2023/12/18 01:45:55;;;;;;;72.07;24.80;;;2.50;99.20;;;;;;5057581;28;20545;-70
2023/12/18 01:48:23;;;;;;;76.43;24.77;;;2.30;99.00;;;;;;5062993;28;20943;-72
2023/12/18 01:50:50;;;;;;;113.50;27.10;;;2.20;99.40;;;;;;5065097;28;20613;-72
2023/12/18 01:53:18;;;;;;;80.07;25.77;;;2.10;99.50;;;;;;5056023;28;20578;-70
2023/12/18 01:55:45;;;;;;;89.63;23.77;;;2.10;99.40;;;;;;5035826;28;20536;-70
2023/12/18 01:58:14;;;;;;;80.17;25.20;;;2.10;99.20;;;;;;5051466;28;20574;-70
2023/12/18 02:00:42;;;;;;;80.40;23.23;;;2.00;99.10;;;;;;5065073;28;20531;-70
2023/12/18 02:03:10;;;;;;;85.50;23.93;;;2.10;99.30;;;;;;5054646;28;20470;-70
2023/12/18 02:05:40;;;;;;;91.17;25.43;;;2.00;99.10;;;;;;5050409;28;20526;-70
2023/12/18 02:08:07;;;;;;;54.63;21.20;;;1.90;99.30;;;;;;5051131;28;20478;-70
2023/12/18 02:10:35;;;;;;;51.10;21.57;;;1.80;99.90;;;;;;5047913;28;20486;-70
2023/12/18 02:13:03;;;;;;;43.73;22.07;;;1.80;99.90;;;;;;5054762;28;20540;-70
2023/12/18 02:15:29;;;;;;;39.93;22.30;;;1.90;99.90;;;;;;5047630;28;20539;-70
2023/12/18 02:17:56;;;;;;;65.37;22.10;;;2.00;99.90;;;;;;5074632;28;20556;-70
2023/12/18 02:20:23;;;;;;;47.80;23.27;;;2.10;99.90;;;;;;5062747;28;20487;-70
2023/12/18 02:22:55;;;;;;;57.30;25.90;;;2.10;99.90;;;;;;5060916;28;20485;-70
2023/12/18 02:25:21;;;;;;;43.07;23.93;;;2.10;99.80;;;;;;5061182;28;20483;-70
2023/12/18 02:27:49;;;;;;;61.57;22.90;;;2.10;99.80;;;;;;5060661;28;20984;-70
2023/12/18 02:30:17;;;;;;;56.77;22.10;;;2.20;99.80;;;;;;5045279;28;20539;-70
2023/12/18 02:32:45;;;;;;;40.23;21.30;;;2.20;99.70;;;;;;5062480;28;21032;-70
2023/12/18 02:35:12;;;;;;;46.73;22.03;;;2.20;99.90;;;;;;5039815;28;20512;-70
2023/12/18 02:37:38;;;;;;;50.33;21.10;;;2.20;99.90;;;;;;5068479;28;20535;-70
2023/12/18 02:40:08;;;;;;;55.83;22.27;;;2.20;99.70;;;;;;5063002;28;21001;-70
2023/12/18 02:42:35;;;;;;;34.13;19.73;;;2.20;99.80;;;;;;5060991;28;21044;-70
2023/12/18 02:45:03;;;;;;;64.40;21.20;;;;;;;;;;5041148;28;20488;-70
2023/12/18 02:47:30;;;;;;;48.87;21.50;;;2.20;99.80;;;;;;5039049;28;20618;-70
2023/12/18 02:49:57;;;;;;;43.90;22.60;;;2.30;99.90;;;;;;5037783;28;20483;-70
2023/12/18 02:52:22;;;;;;;62.80;25.50;;;2.30;99.70;;;;;;5043203;28;21054;-70
2023/12/18 02:54:49;;;;;;;37.93;21.27;;;2.30;99.50;;;;;;5049263;28;20466;-70
2023/12/18 02:57:17;;;;;;;68.67;23.73;;;2.30;99.40;;;;;;5060974;28;20240;-70
2023/12/18 02:59:44;;;;;;;46.40;23.23;;;2.30;99.30;;;;;;5028060;28;20479;-70
2023/12/18 03:02:11;;;;;;;47.67;22.20;;;2.30;99.30;;;;;;5039640;28;20926;-70
2023/12/18 03:04:40;;;;;;;55.87;22.67;;;2.30;99.30;;;;;;5040558;28;20476;-70
2023/12/18 03:07:08;;;;;;;60.77;22.60;;;2.10;98.60;;;;;;5048643;28;20837;-70
2023/12/18 03:09:35;;;;;;;57.03;22.13;;;2.10;99.10;;;;;;5050062;28;20491;-70
2023/12/18 03:12:02;;;;;;;117.30;24.97;;;2.10;99.20;;;;;;5049955;28;20575;-70
2023/12/18 03:14:30;;;;;;;92.13;27.00;;;1.70;98.50;;;;;;5055488;28;20495;-70
2023/12/18 03:16:57;;;;;;;81.87;26.70;;;1.80;98.80;;;;;;5053544;28;20487;-70
2023/12/18 03:19:24;;;;;;;77.43;21.07;;;1.70;99.50;;;;;;5028334;28;20490;-70
2023/12/18 03:21:51;;;;;;;64.80;20.20;;;1.70;99.60;;;;;;5027442;28;20876;-70
2023/12/18 03:24:17;;;;;;;46.60;21.10;;;1.80;99.70;;;;;;5040991;28;20526;-70
2023/12/18 03:26:44;;;;;;;52.73;22.43;;;2.00;99.90;;;;;;5022968;28;20521;-70
2023/12/18 03:29:11;;;;;;;37.03;19.77;;;1.90;99.80;;;;;;5045500;28;20541;-70
2023/12/18 03:31:40;;;;;;;38.27;20.87;;;1.90;99.70;;;;;;5007735;28;20509;-70
2023/12/18 03:34:06;;;;;;;43.67;19.97;;;1.90;99.80;;;;;;5036544;28;20525;-70
2023/12/18 03:36:33;;;;;;;42.03;21.60;;;1.90;99.40;;;;;;5040798;28;20901;-70
2023/12/18 03:39:00;;;;;;;28.73;18.70;;;1.90;99.40;;;;;;5048891;28;20498;-70
2023/12/18 03:41:27;;;;;;;39.63;18.97;;;1.90;99.30;;;;;;5046515;28;20486;-70
2023/12/18 03:43:54;;;;;;;37.87;20.50;;;1.90;99.20;;;;;;5067482;28;20474;-70
2023/12/18 03:46:21;;;;;;;49.57;19.67;;;1.90;99.10;;;;;;5055987;28;21146;-70
2023/12/18 03:48:49;;;;;;;39.33;20.60;;;1.90;99.10;;;;;;5056860;28;21068;-70
2023/12/18 03:51:16;;;;;;;34.47;20.03;;;1.90;99.20;;;;;;5045492;28;20535;-70
2023/12/18 03:53:43;;;;;;;58.70;21.33;;;1.90;99.30;;;;;;5058442;28;20894;-70
2023/12/18 03:56:10;;;;;;;37.93;18.93;;;2.00;99.20;;;;;;5041988;28;20479;-70
2023/12/18 03:58:37;;;;;;;33.33;19.13;;;2.00;99.30;;;;;;5059642;28;20478;-70
2023/12/18 04:01:04;;;;;;;49.73;19.83;;;2.00;99.20;;;;;;5038102;28;20860;-70
2023/12/18 04:03:31;;;;;;;39.83;19.27;;;2.00;99.40;;;;;;5067095;28;20486;-70
2023/12/18 04:05:59;;;;;;;40.43;20.57;;;2.00;99.50;;;;;;5060052;28;20532;-70
2023/12/18 04:08:26;;;;;;;47.07;21.37;;;2.00;99.30;;;;;;5060638;28;20470;-70
2023/12/18 04:10:53;;;;;;;57.80;22.03;;;2.00;99.10;;;;;;5064245;28;20482;-70
2023/12/18 04:13:20;;;;;;;50.37;20.57;;;2.00;98.80;;;;;;5060567;28;20483;-70
2023/12/18 04:15:47;;;;;;;98.23;22.30;;;1.80;98.40;;;;;;5057272;28;20479;-70
2023/12/18 04:18:14;;;;;;;52.40;20.97;;;1.70;98.60;;;;;;5059263;28;20481;-70
2023/12/18 04:20:41;;;;;;;94.57;23.87;;;1.50;98.30;;;;;;5051354;28;20547;-70
2023/12/18 04:23:09;;;;;;;133.67;25.57;;;1.30;98.40;;;;;;5069087;28;20487;-70
2023/12/18 04:25:37;;;;;;;80.53;25.23;;;0.90;98.70;;;;;;5059848;28;20536;-70
2023/12/18 04:28:04;;;;;;;77.20;24.43;;;0.70;99.10;;;;;;5059459;28;20475;-70
2023/12/18 04:30:31;;;;;;;66.93;24.73;;;0.70;99.20;;;;;;5058873;28;20475;-70
2023/12/18 04:32:58;;;;;;;72.37;23.00;;;0.50;99.40;;;;;;5059473;28;20894;-70
2023/12/18 04:35:25;;;;;;;46.10;21.00;;;0.40;99.80;;;;;;5058248;28;20491;-70
2023/12/18 04:37:51;;;;;;;29.17;18.03;;;0.40;99.90;;;;;;5057982;28;20478;-70
2023/12/18 04:40:20;;;;;;;26.30;17.70;;;0.50;99.90;;;;;;5065713;28;20475;-70
2023/12/18 04:42:47;;;;;;;46.93;19.37;;;0.70;99.90;;;;;;5050655;28;20491;-70
2023/12/18 04:45:14;;;;;;;21.37;15.00;;;0.90;99.90;;;;;;5056359;28;20552;-70
2023/12/18 04:47:40;;;;;;;31.67;17.80;;;1.00;99.90;;;;;;5059975;28;20993;-70
2023/12/18 04:50:08;;;;;;;24.97;15.40;;;1.20;99.90;;;;;;5059164;28;20475;-70
2023/12/18 04:52:34;;;;;;;27.00;15.33;;;1.20;99.90;;;;;;5057363;28;20479;-70
2023/12/18 04:55:02;;;;;;;22.90;12.73;;;1.00;99.20;;;;;;5061186;28;20485;-70
2023/12/18 04:57:30;;;;;;;21.87;15.63;;;0.70;99.80;;;;;;5062262;28;20503;-70
2023/12/18 04:59:57;;;;;;;25.90;15.87;;;0.70;99.90;;;;;;5059829;28;20533;-70
2023/12/18 05:02:24;;;;;;;27.27;16.50;;;0.50;99.20;;;;;;5056774;28;20942;-70
2023/12/18 05:04:51;;;;;;;25.17;16.57;;;0.50;99.30;;;;;;5060193;28;20475;-70
2023/12/18 05:07:18;;;;;;;32.07;17.07;;;0.60;99.80;;;;;;5058506;28;20947;-70
2023/12/18 05:09:45;;;;;;;43.60;17.40;;;0.70;99.90;;;;;;5058548;28;20477;-70
2023/12/18 05:12:11;;;;;;;27.73;15.30;;;0.80;99.90;;;;;;5057913;28;20478;-70
2023/12/18 05:14:40;;;;;;;26.57;16.20;;;0.90;99.70;;;;;;5054127;28;20536;-70
2023/12/18 05:17:07;;;;;;;27.03;17.20;;;1.00;99.40;;;;;;5058742;28;20483;-70
2023/12/18 05:19:33;;;;;;;41.57;17.87;;;1.10;99.30;;;;;;5058968;28;20532;-70
2023/12/18 05:22:00;;;;;;;30.27;17.10;;;1.10;99.20;;;;;;5057265;28;20547;-70
2023/12/18 05:24:27;;;;;;;28.90;18.83;;;1.20;99.00;;;;;;5058724;28;20561;-70
2023/12/18 05:26:54;;;;;;;27.07;16.57;;;1.20;98.80;;;;;;5056509;28;20470;-70
2023/12/18 05:29:21;;;;;;;31.10;17.37;;;1.20;98.60;;;;;;5064096;28;20508;-70
2023/12/18 05:31:49;;;;;;;25.63;17.30;;;1.20;98.50;;;;;;5057834;28;20537;-70
2023/12/18 05:34:16;;;;;;;25.80;16.00;;;1.20;98.50;;;;;;5058865;28;20478;-70
2023/12/18 05:36:43;;;;;;;31.00;19.37;;;1.00;97.90;;;;;;5061018;28;20483;-70
2023/12/18 05:39:10;;;;;;;35.93;17.37;;;0.80;98.40;;;;;;5061735;28;20475;-69
2023/12/18 05:41:37;;;;;;;24.07;15.77;;;0.70;98.60;;;;;;5063814;28;20565;-70
2023/12/18 05:44:04;;;;;;;33.60;16.13;;;0.70;98.90;;;;;;5060701;28;20630;-69
2023/12/18 05:46:31;;;;;;;27.50;15.63;;;0.80;98.80;;;;;;5062719;28;20471;-70
2023/12/18 05:48:59;;;;;;;24.27;15.20;;;0.90;98.80;;;;;;5059836;28;20470;-70
2023/12/18 05:51:26;;;;;;;30.30;14.80;;;1.00;98.80;;;;;;5060817;28;20471;-69
2023/12/18 05:53:53;;;;;;;24.50;15.07;;;1.00;98.80;;;;;;5060327;28;20483;-70
2023/12/18 05:56:20;;;;;;;24.43;15.73;;;1.10;99.00;;;;;;5059876;28;20482;-70
2023/12/18 05:58:47;;;;;;;31.30;15.47;;;1.10;98.90;;;;;;5061983;28;20580;-70
2023/12/18 06:01:13;;;;;;;23.80;15.30;;;1.20;98.70;;;;;;5061529;28;20474;-70
2023/12/18 06:03:41;;;;;;;47.30;24.40;;;1.20;98.50;;;;;;5058833;28;20479;-70
2023/12/18 06:06:09;;;;;;;66.70;25.57;;;1.20;98.30;;;;;;5061506;28;20528;-70
2023/12/18 06:08:36;;;;;;;38.60;20.27;;;1.20;98.30;;;;;;5059990;28;20486;-70
2023/12/18 06:11:02;;;;;;;33.67;17.27;;;1.20;98.40;;;;;;5058749;28;20479;-69
2023/12/18 06:13:31;;;;;;;44.43;18.00;;;1.20;98.40;;;;;;5061281;28;20997;-69
2023/12/18 06:15:58;;;;;;;41.20;22.07;;;;;;;;;;5058407;28;20478;-70
2023/12/18 06:18:25;;;;;;;83.67;25.00;;;;;;;;;;5061105;28;20509;-70
2023/12/18 06:20:52;;;;;;;38.10;20.10;;;1.30;98.50;;;;;;5054309;28;20502;-70
2023/12/18 06:23:20;;;;;;;31.93;16.77;;;1.30;98.20;;;;;;5059831;28;20540;-70
2023/12/18 06:25:47;;;;;;;40.97;15.47;;;1.30;98.30;;;;;;5060417;28;21183;-70
2023/12/18 06:28:14;;;;;;;48.93;17.80;;;1.30;98.20;;;;;;5047543;28;21202;-69
2023/12/18 06:30:41;;;;;;;28.53;17.20;;;1.30;98.20;;;;;;5070901;28;20476;-70
2023/12/18 06:33:08;;;;;;;28.27;16.30;;;1.30;98.20;;;;;;5052755;28;20770;-70
2023/12/18 06:35:35;;;;;;;34.47;17.70;;;1.30;98.40;;;;;;5042389;28;20537;-70
2023/12/18 06:38:02;;;;;;;27.23;17.17;;;1.30;98.60;;;;;;5045270;28;20886;-69
2023/12/18 06:40:30;;;;;;;23.60;16.03;;;1.30;98.30;;;;;;5051199;28;20491;-70
2023/12/18 06:42:57;;;;;;;32.07;18.50;;;1.30;98.10;;;;;;5068444;28;20515;-69
2023/12/18 06:45:24;;;;;;;22.83;16.27;;;;;;;;;;5035334;28;20819;-70
2023/12/18 06:47:51;;;;;;;31.40;18.03;;;1.10;97.50;;;;;;5039111;28;20894;-70
2023/12/18 06:50:17;;;;;;;24.00;16.03;;;1.00;97.50;;;;;;5043502;28;20887;-70
2023/12/18 06:52:44;;;;;;;44.73;19.60;;;1.00;97.80;;;;;;5036368;28;20503;-70
2023/12/18 06:55:11;;;;;;;48.47;27.50;;;1.00;97.80;;;;;;5042897;28;20471;-70
2023/12/18 06:57:40;;;;;;;30.67;18.63;;;0.90;97.80;;;;;;5035676;28;21094;-70
2023/12/18 07:00:08;;;;;;;57.80;19.97;;;0.60;97.60;;;;;;5037038;28;20483;-69
2023/12/18 07:02:35;;;;;;;29.47;18.73;;;0.70;98.20;;;;;;5052470;28;21218;-69
2023/12/18 07:05:04;;;;;;;34.63;17.07;;;0.70;98.20;;;;;;5029032;28;20541;-70
2023/12/18 07:07:31;;;;;;;23.20;15.77;;;0.80;98.30;;;;;;5047403;28;20499;-70
2023/12/18 07:09:58;;;;;;;28.13;18.07;;;0.80;98.30;;;;;;5055785;28;20561;-70
2023/12/18 07:12:25;;;;;;;33.20;17.50;;;0.90;98.40;;;;;;5046311;28;20480;-70
2023/12/18 07:14:53;;;;;;;25.70;16.50;;;1.00;98.70;;;;;;5043094;28;20503;-70
2023/12/18 07:17:20;;;;;;;27.03;15.53;;;0.90;98.80;;;;;;5032778;28;20471;-69
2023/12/18 07:19:47;;;;;;;22.27;15.17;;;0.80;99.40;;;;;;5053890;28;20476;-70
2023/12/18 07:22:14;;;;;;;26.97;14.20;;;0.70;99.90;;;;;;5033690;28;20551;-70
2023/12/18 07:24:40;;;;;;;18.20;12.60;;;0.80;99.90;;;;;;5064865;28;20479;-70
2023/12/18 07:27:07;;;;;;;72.83;15.30;;;0.70;99.90;;;;;;5059247;28;20930;-70
2023/12/18 07:29:34;;;;;;;22.40;13.63;;;0.70;99.90;;;;;;5057059;28;20540;-70
2023/12/18 07:32:03;;;;;;;29.03;13.63;;;0.70;99.90;;;;;;5059975;28;20475;-70
2023/12/18 07:34:29;;;;;;;31.87;14.60;;;0.80;99.70;;;;;;5048961;28;20482;-69
2023/12/18 07:36:56;;;;;;;23.37;15.00;;;0.90;99.40;;;;;;5066448;28;20877;-69
2023/12/18 07:39:23;;;;;;;19.60;13.90;;;1.00;99.40;;;;;;5063040;28;20471;-70
2023/12/18 07:41:50;;;;;;;36.30;15.27;;;0.90;99.90;;;;;;5050032;28;20544;-70
2023/12/18 07:44:17;;;;;;;22.27;14.60;;;0.80;99.90;;;;;;5049381;28;20478;-69
2023/12/18 07:46:46;;;;;;;27.03;14.43;;;0.70;99.90;;;;;;5060136;28;20478;-70
2023/12/18 07:49:14;;;;;;;29.13;14.87;;;0.90;99.90;;;;;;5056070;28;20479;-69
2023/12/18 07:51:41;;;;;;;22.23;14.50;;;0.90;99.70;;;;;;5048615;28;20486;-69
2023/12/18 07:54:08;;;;;;;18.20;12.90;;;0.90;99.80;;;;;;5048309;28;21050;-70
2023/12/18 07:56:35;;;;;;;21.17;13.50;;;0.80;99.10;;;;;;5041334;28;20478;-70
2023/12/18 07:59:02;;;;;;;24.40;13.87;;;0.70;98.90;;;;;;5040984;28;20479;-70
2023/12/18 08:01:28;;;;;;;46.57;16.47;;;0.30;98.60;;;;;;5046559;28;20479;-69
2023/12/18 08:03:55;;;;;;;23.70;15.53;;;0.20;99.00;;;;;;5048957;28;20478;-69
2023/12/18 08:06:24;;;;;;;35.43;15.60;;;0.10;99.90;;;;;;5048294;28;20475;-70
2023/12/18 08:08:50;;;;;;;37.90;14.40;;;0.20;99.90;;;;;;5052115;28;20485;-69
2023/12/18 08:11:17;;;;;;;24.63;13.53;;;0.30;99.90;;;;;;5054453;28;20985;-70
2023/12/18 08:13:46;;;;;;;23.90;14.57;;;0.50;99.90;;;;;;5034427;28;20484;-69
2023/12/18 08:16:12;;;;;;;30.07;13.53;;;0.60;99.90;;;;;;5020985;28;20914;-69
2023/12/18 08:18:42;;;;;;;23.23;14.43;;;0.70;99.90;;;;;;5035063;28;20467;-69
2023/12/18 08:21:12;;;;;;;27.87;16.23;;;0.90;99.90;;;;;;5022061;28;20532;-69
2023/12/18 08:23:41;;;;;;;31.23;15.43;;;1.20;99.90;;;;;;5055846;28;20535;-69
2023/12/18 08:26:10;;;;;;;37.60;21.27;;;2.00;99.90;;;;;;5061183;28;20986;-69
2023/12/18 08:28:37;;;;;;;40.60;19.63;;;2.80;99.90;;;;;;5046066;28;20894;-69
2023/12/18 08:31:04;;;;;;;21.67;14.83;;;3.80;99.90;;;;;;5050127;28;20475;-70
2023/12/18 08:33:31;;;;;;;20.57;14.63;;;4.00;99.90;;;;;;5049028;28;20536;-70
2023/12/18 08:35:58;;;;;;;44.77;16.57;;;4.50;99.20;;;;;;5050111;28;20477;-70
2023/12/18 08:38:25;;;;;;;22.70;14.00;;;4.80;98.60;;;;;;5043701;28;20477;-70
2023/12/18 08:40:53;;;;;;;19.70;13.00;;;5.10;98.90;;;;;;5045450;28;21078;-69
2023/12/18 08:43:20;;;;;;;19.93;13.27;;;5.40;98.20;;;;;;5054018;28;20528;-69
2023/12/18 08:45:47;;;;;;;18.63;13.47;;;5.70;97.90;;;;;;5046861;28;20543;-68
2023/12/18 08:48:13;;;;;;;23.10;14.20;;;6.00;97.60;;;;;;5044622;28;20466;-68
2023/12/18 08:50:40;;;;;;;26.00;12.83;;;6.10;97.40;;;;;;5052332;28;20544;-68
2023/12/18 08:53:07;;;;;;;21.60;14.03;;;6.20;97.20;;;;;;5054464;28;20532;-70
2023/12/18 08:55:39;;;;;;;19.63;13.37;;;6.20;97.20;;;;;;5048039;28;20825;-70
2023/12/18 08:58:08;;;;;;;27.00;15.07;;;6.10;97.10;;;;;;5050559;28;20485;-70
2023/12/18 09:00:35;;;;;;;17.80;13.30;;;6.20;97.50;;;;;;5043789;28;20921;-69
2023/12/18 09:03:02;;;;;;;20.20;14.43;;;6.30;97.50;;;;;;5046443;28;20501;-69
2023/12/18 09:05:29;;;;;;;20.67;12.57;;;6.30;97.40;;;;;;5064190;28;20467;-70
2023/12/18 09:07:56;;;;;;;24.50;14.60;;;6.00;97.40;;;;;;5047376;28;20556;-70
2023/12/18 09:10:23;;;;;;;43.67;16.53;;;5.60;97.70;;;;;;5050236;28;20485;-70
2023/12/18 09:12:51;;;;;;;20.67;13.07;;;5.60;98.60;;;;;;5051131;28;20549;-71
2023/12/18 09:15:19;;;;;;;19.10;13.60;;;5.30;98.40;;;;;;5054384;28;20514;-71
2023/12/18 09:17:46;;;;;;;34.20;15.73;;;5.10;98.80;;;;;;5051604;28;20482;-71
2023/12/18 09:20:14;;;;;;;23.70;15.10;;;;;;;;;;5060606;28;20897;-70
2023/12/18 09:22:41;;;;;;;21.17;15.73;;;5.00;99.40;;;;;;5048408;28;20576;-70
2023/12/18 09:25:08;;;;;;;24.30;16.03;;;4.80;99.40;;;;;;5048047;28;20479;-70
2023/12/18 09:27:36;;;;;;;22.07;14.80;;;;;;;;;;5025488;28;20479;-71
2023/12/18 09:30:02;;;;;;;24.23;16.27;;;4.50;99.90;;;;;;5052350;28;20484;-71
2023/12/18 09:32:31;;;;;;;23.13;14.87;;;4.30;99.90;;;;;;5043862;28;20550;-72
2023/12/18 09:34:58;;;;;;;23.00;13.50;;;4.30;99.90;;;;;;5042691;28;20541;-70
2023/12/18 09:37:28;;;;;;;23.17;15.57;;;4.30;99.90;;;;;;5049855;28;20551;-71
2023/12/18 09:39:55;;;;;;;26.80;14.33;;;4.30;99.90;;;;;;5061708;28;20472;-70
2023/12/18 09:42:25;;;;;;;21.13;15.03;;;4.30;99.90;;;;;;5049828;28;20554;-70
2023/12/18 09:44:52;;;;;;;40.20;16.27;;;4.10;99.90;;;;;;5044224;28;20485;-71
2023/12/18 09:47:19;;;;;;;20.90;16.20;;;4.20;99.90;;;;;;5066265;28;20543;-70
2023/12/18 09:49:47;;;;;;;23.63;14.73;;;4.10;99.90;;;;;;5022754;28;20479;-71
2023/12/18 09:52:15;;;;;;;24.67;16.53;;;4.10;99.90;;;;;;5027071;28;20474;-70
2023/12/18 09:54:54;;;;;;;28.90;18.20;;;4.00;99.90;;;;;;5046128;28;20507;-71
2023/12/18 09:57:24;;;;;;;27.90;17.53;;;3.80;99.90;;;;;;5021564;28;20533;-72
2023/12/18 09:59:51;;;;;;;35.93;16.90;;;3.90;99.90;;;;;;5034381;28;20509;-70
2023/12/18 10:02:19;;;;;;;26.27;17.30;;;3.80;99.90;;;;;;5046297;28;20485;-70
2023/12/18 10:04:47;;;;;;;24.33;17.00;;;3.90;99.90;;;;;;5060664;28;20555;-71
2023/12/18 10:07:14;;;;;;;21.57;15.20;;;4.10;99.90;;;;;;5050886;28;20479;-70
2023/12/18 10:09:41;;;;;;;27.10;16.10;;;4.10;99.90;;;;;;5055905;28;20506;-72
2023/12/18 10:12:09;;;;;;;19.87;10.87;;;4.30;99.90;;;;;;5034275;28;20466;-73
2023/12/18 10:14:36;;;;;;;20.83;11.17;;;4.50;99.90;;;;;;5052902;28;20546;-75
2023/12/18 10:17:03;;;;;;;21.10;13.30;;;4.60;99.90;;;;;;5051476;28;20532;-72
2023/12/18 10:19:29;;;;;;;33.83;15.60;;;4.70;99.90;;;;;;5049525;28;20478;-71
2023/12/18 10:21:58;;;;;;;15.97;9.30;;;4.60;99.90;;;;;;5063405;28;20491;-74
2023/12/18 10:24:26;;;;;;;19.00;11.00;;;4.90;99.90;;;;;;5051196;28;20988;-72
2023/12/18 10:26:53;;;;;;;28.63;12.57;;;5.10;99.90;;;;;;5059105;28;20475;-74
2023/12/18 10:29:20;;;;;;;18.47;11.80;;;5.10;99.90;;;;;;5052467;28;20486;-71
2023/12/18 10:31:47;;;;;;;20.07;12.20;;;5.20;99.90;;;;;;5039306;28;20541;-70
2023/12/18 10:34:18;;;;;;;23.27;12.83;;;5.40;99.90;;;;;;5033457;28;20563;-71
2023/12/18 10:36:50;;;;;;;22.80;16.00;;;5.40;99.90;;;;;;5016002;28;20498;-72
2023/12/18 10:39:20;;;;;;;19.20;13.60;;;5.50;99.90;;;;;;5019505;28;20534;-72
2023/12/18 10:41:53;;;;;;;18.17;11.47;;;5.70;99.90;;;;;;5022342;28;20966;-73
2023/12/18 10:44:23;;;;;;;22.53;13.30;;;5.70;99.90;;;;;;5043820;28;20482;-71
2023/12/18 10:46:50;;;;;;;20.27;12.13;;;5.70;99.90;;;;;;5038643;28;20556;-74
2023/12/18 10:49:18;;;;;;;20.50;12.77;;;5.70;99.90;;;;;;5046151;28;20482;-72
2023/12/18 10:51:46;;;;;;;22.73;13.90;;;5.70;99.90;;;;;;5038333;28;20490;-74
2023/12/18 10:54:14;;;;;;;21.50;11.70;;;5.70;99.90;;;;;;5035123;28;20540;-72
2023/12/18 10:56:45;;;;;;;18.23;13.20;;;5.90;99.90;;;;;;5050369;28;20481;-71
2023/12/18 10:59:14;;;;;;;15.10;11.33;;;5.90;99.90;;;;;;5042439;28;20582;-74
2023/12/18 11:01:40;;;;;;;17.17;10.30;;;6.00;99.90;;;;;;5026744;28;20991;-73
2023/12/18 11:04:08;;;;;;;19.07;14.40;;;6.00;99.90;;;;;;5052116;28;20466;-72
2023/12/18 11:06:37;;;;;;;19.23;13.53;;;6.10;99.90;;;;;;5041904;28;20483;-71
2023/12/18 11:09:04;;;;;;;18.17;11.83;;;6.20;99.90;;;;;;5053556;28;21819;-72
2023/12/18 11:11:32;;;;;;;20.70;12.87;;;6.30;99.90;;;;;;5032911;28;20475;-71
2023/12/18 11:14:13;;;;;;;23.07;14.20;;;6.50;99.90;;;;;;5056300;28;20535;-72
2023/12/18 11:16:54;;;;;;;25.07;13.57;;;6.70;99.90;;;;;;5052794;28;20532;-72
2023/12/18 11:19:31;;;;;;;19.70;13.13;;;6.80;99.90;;;;;;5028983;28;21051;-72
2023/12/18 11:22:04;;;;;;;20.20;14.30;;;7.00;99.90;;;;;;5050431;28;21078;-72
2023/12/18 11:24:36;;;;;;;19.73;14.23;;;7.00;99.80;;;;;;5053768;28;20465;-73
2023/12/18 11:27:03;;;;;;;20.67;15.53;;;6.80;99.60;;;;;;5025030;28;20543;-73
2023/12/18 11:29:42;;;;;;;26.77;13.40;;;6.90;99.90;;;;;;5015807;28;20486;-71
2023/12/18 11:32:11;;;;;;;21.83;14.80;;;7.10;99.90;;;;;;5041898;28;20507;-73
2023/12/18 11:34:40;;;;;;;19.13;13.03;;;7.20;99.80;;;;;;5030206;28;20510;-74
2023/12/18 11:37:08;;;;;;;23.10;13.83;;;7.30;99.50;;;;;;5010920;28;20835;-71
2023/12/18 11:39:39;;;;;;;26.53;13.93;;;7.50;99.50;;;;;;5035561;28;20882;-73
2023/12/18 11:42:07;;;;;;;23.73;14.30;;;7.60;99.70;;;;;;5021221;28;20472;-73
2023/12/18 11:44:37;;;;;;;17.47;13.40;;;7.60;99.60;;;;;;5027432;28;20483;-73
2023/12/18 11:47:04;;;;;;;18.43;12.90;;;7.70;99.10;;;;;;5040377;28;20820;-74
2023/12/18 11:49:32;;;;;;;19.57;13.43;;;7.80;99.20;;;;;;5032565;28;20480;-73
2023/12/18 11:51:59;;;;;;;24.73;13.83;;;7.90;99.20;;;;;;5030174;28;21016;-74
2023/12/18 11:54:27;;;;;;;21.10;13.33;;;8.00;99.10;;;;;;5037804;28;20536;-72
2023/12/18 11:56:56;;;;;;;21.10;12.50;;;8.10;99.00;;;;;;5043308;28;20520;-74
2023/12/18 11:59:24;;;;;;;20.77;13.93;;;8.20;98.50;;;;;;5041060;28;20481;-71
2023/12/18 12:01:53;;;;;;;18.37;12.63;;;8.20;98.70;;;;;;5031792;28;20480;-74
2023/12/18 12:04:21;;;;;;;16.40;12.87;;;8.20;98.80;;;;;;5024654;28;22896;-74
2023/12/18 12:06:48;;;;;;;19.77;12.37;;;8.50;98.30;;;;;;5028880;28;20480;-73
2023/12/18 12:09:15;;;;;;;26.67;13.50;;;8.80;98.00;;;;;;5063363;28;21996;-73
2023/12/18 12:11:42;;;;;;;21.10;12.43;;;8.90;98.20;;;;;;5022203;28;20522;-72
2023/12/18 12:14:09;;;;;;;20.23;12.23;;;9.10;97.60;;;;;;5062660;28;20487;-73
2023/12/18 12:16:36;;;;;;;27.80;14.73;;;9.00;97.60;;;;;;5044819;28;20619;-74
2023/12/18 12:19:04;;;;;;;19.80;14.10;;;9.00;98.10;;;;;;5056620;28;20471;-71
2023/12/18 12:21:31;;;;;;;18.73;14.07;;;9.00;97.60;;;;;;5051426;28;20474;-74
2023/12/18 12:23:58;;;;;;;32.00;14.80;;;8.80;97.30;;;;;;5039436;28;20568;-73
2023/12/18 12:26:25;;;;;;;19.10;12.53;;;8.80;97.90;;;;;;5044218;28;20474;-75
2023/12/18 12:28:53;;;;;;;19.93;15.17;;;8.90;97.60;;;;;;5054043;28;20900;-74
2023/12/18 12:31:20;;;;;;;31.63;14.63;;;8.80;97.70;;;;;;5033993;28;20532;-74
2023/12/18 12:33:49;;;;;;;19.33;13.40;;;8.70;97.50;;;;;;5039145;28;20513;-75
2023/12/18 12:36:22;;;;;;;25.27;13.13;;;8.60;96.80;;;;;;5042961;28;20482;-72
2023/12/18 12:38:49;;;;;;;17.60;12.20;;;8.60;97.30;;;;;;5054218;28;20889;-75